createdAt,value
2022-08-19T00:00:25.704Z,5.82
2022-08-19T00:03:15.156Z,6.20
2022-08-19T00:06:05.409Z,5.90
2022-08-19T00:08:54.912Z,6.00
2022-08-19T00:11:45.681Z,6.30
2022-08-19T00:14:34.906Z,6.00
2022-08-19T00:17:24.436Z,5.93
2022-08-19T00:20:18.898Z,5.90
2022-08-19T00:23:08.930Z,5.95
2022-08-19T00:25:58.510Z,5.68
2022-08-19T00:28:49.144Z,5.63
2022-08-19T00:31:38.531Z,5.65
2022-08-19T00:34:32.106Z,5.78
2022-08-19T00:37:24.981Z,5.85
2022-08-19T00:40:15.445Z,5.22
2022-08-19T00:43:11.380Z,5.63
2022-08-19T00:46:01.178Z,5.95
2022-08-19T00:48:50.668Z,5.40
2022-08-19T00:51:40.100Z,6.00
2022-08-19T00:54:31.230Z,5.80
2022-08-19T00:57:30.581Z,5.75
2022-08-19T01:00:21.770Z,5.10
2022-08-19T01:03:15.624Z,5.17
2022-08-19T01:06:08.736Z,5.50
2022-08-19T01:08:57.992Z,5.70
2022-08-19T01:11:48.263Z,5.88
2022-08-19T01:14:39.980Z,4.97
2022-08-19T01:17:30.008Z,5.18
2022-08-19T01:20:23.987Z,5.40
2022-08-19T01:23:14.102Z,5.50
2022-08-19T01:26:03.655Z,5.65
2022-08-19T01:28:59.500Z,5.25
2022-08-19T01:31:51.170Z,5.10
2022-08-19T01:34:41.068Z,5.20
2022-08-19T01:37:31.578Z,5.65
2022-08-19T01:40:24.097Z,5.88
2022-08-19T01:43:13.716Z,5.10
2022-08-19T01:46:03.704Z,5.35
2022-08-19T01:48:53.455Z,5.30
2022-08-19T01:51:42.931Z,5.10
2022-08-19T01:54:32.340Z,5.28
2022-08-19T01:57:21.889Z,5.20
2022-08-19T02:00:14.868Z,5.38
2022-08-19T02:03:04.793Z,5.40
2022-08-19T02:05:59.679Z,5.60
2022-08-19T02:08:49.659Z,5.43
2022-08-19T02:11:41.272Z,5.32
2022-08-19T02:14:30.818Z,5.47
2022-08-19T02:17:20.494Z,5.30
2022-08-19T02:20:10.854Z,4.93
2022-08-19T02:23:00.264Z,5.80
2022-08-19T02:25:50.805Z,5.45
2022-08-19T02:28:40.983Z,5.18
2022-08-19T02:31:32.648Z,5.47
2022-08-19T02:34:22.043Z,5.32
2022-08-19T02:37:31.535Z,5.28
2022-08-19T02:40:24.790Z,5.40
2022-08-19T02:43:14.049Z,5.40
2022-08-19T02:46:04.654Z,5.82
2022-08-19T02:48:57.255Z,4.82
2022-08-19T02:51:47.952Z,5.05
2022-08-19T02:54:37.439Z,5.43
2022-08-19T02:57:27.120Z,5.60
2022-08-19T03:00:16.982Z,5.25
2022-08-19T03:03:06.644Z,4.85
2022-08-19T03:06:10.668Z,5.63
2022-08-19T03:09:00.485Z,5.43
2022-08-19T03:11:52.794Z,5.18
2022-08-19T03:14:42.359Z,5.20
2022-08-19T03:17:31.694Z,5.25
2022-08-19T03:20:21.076Z,5.43
2022-08-19T03:23:10.312Z,5.40
2022-08-19T03:26:15.683Z,5.07
2022-08-19T03:29:06.860Z,5.70
2022-08-19T03:34:47.358Z,5.20
2022-08-19T03:37:37.060Z,5.50
2022-08-19T03:40:26.282Z,5.30
2022-08-19T03:43:20.300Z,5.47
2022-08-19T03:46:13.220Z,5.30
2022-08-19T03:49:11.054Z,5.30
2022-08-19T03:52:03.962Z,5.25
2022-08-19T03:54:53.696Z,4.90
2022-08-19T03:57:43.296Z,5.00
2022-08-19T04:00:32.668Z,5.43
2022-08-19T04:03:22.181Z,5.10
2022-08-19T04:06:22.324Z,5.72
2022-08-19T04:09:13.892Z,5.32
2022-08-19T04:12:03.260Z,5.07
2022-08-19T04:14:52.573Z,4.63
2022-08-19T04:17:42.887Z,4.57
2022-08-19T04:20:32.275Z,5.13
2022-08-19T04:23:21.713Z,4.82
2022-08-19T04:26:20.494Z,5.03
2022-08-19T04:29:13.602Z,5.22
2022-08-19T04:32:08.422Z,5.22
2022-08-19T04:35:02.330Z,4.45
2022-08-19T04:38:07.841Z,4.90
2022-08-19T04:41:15.549Z,4.95
2022-08-19T04:44:05.937Z,4.70
2022-08-19T04:46:55.371Z,4.80
2022-08-19T04:49:44.742Z,5.68
2022-08-19T04:52:34.313Z,5.00
2022-08-19T04:55:23.605Z,4.60
2022-08-19T04:58:13.089Z,4.85
2022-08-19T05:01:02.481Z,4.70
2022-08-19T05:03:51.975Z,4.65
2022-08-19T05:06:41.924Z,4.57
2022-08-19T05:09:55.602Z,4.40
2022-08-19T05:12:42.312Z,4.70
2022-08-19T05:15:31.994Z,4.68
2022-08-19T05:18:39.776Z,4.43
2022-08-19T05:21:49.204Z,5.13
2022-08-19T05:24:51.275Z,5.00
2022-08-19T05:27:48.957Z,4.65
2022-08-19T05:30:47.105Z,4.20
2022-08-19T05:33:37.372Z,5.07
2022-08-19T05:36:29.089Z,4.70
2022-08-19T05:39:22.636Z,4.20
2022-08-19T05:42:14.120Z,4.50
2022-08-19T05:45:03.701Z,4.80
2022-08-19T05:47:53.297Z,4.30
2022-08-19T05:50:43.762Z,4.50
2022-08-19T05:53:33.320Z,4.13
2022-08-19T05:56:23.040Z,4.72
2022-08-19T05:59:13.480Z,4.57
2022-08-19T06:02:03.775Z,4.78
2022-08-19T06:04:53.135Z,4.53
2022-08-19T06:07:42.912Z,4.25
2022-08-19T06:10:33.024Z,4.20
2022-08-19T06:13:23.140Z,4.70
2022-08-19T06:16:12.375Z,4.30
2022-08-19T06:19:05.120Z,4.35
2022-08-19T06:21:55.792Z,4.30
2022-08-19T06:24:45.035Z,4.45
2022-08-19T06:27:35.380Z,4.03
2022-08-19T06:30:25.242Z,4.38
2022-08-19T06:33:14.689Z,4.60
2022-08-19T06:36:05.065Z,4.80
2022-08-19T06:38:54.540Z,4.20
2022-08-19T06:41:50.681Z,4.15
2022-08-19T06:44:48.958Z,3.88
2022-08-19T06:47:38.856Z,4.38
2022-08-19T06:50:28.116Z,4.40
2022-08-19T06:53:17.817Z,4.30
2022-08-19T06:56:07.211Z,4.25
2022-08-19T06:58:56.495Z,4.57
2022-08-19T07:01:51.970Z,4.45
2022-08-19T07:04:42.467Z,3.95
2022-08-19T07:07:33.336Z,4.70
2022-08-19T07:10:22.988Z,4.07
2022-08-19T07:13:15.621Z,4.50
2022-08-19T07:16:19.425Z,3.88
2022-08-19T07:19:20.491Z,3.95
2022-08-19T07:22:13.128Z,4.32
2022-08-19T07:25:04.863Z,4.15
2022-08-19T07:27:54.660Z,4.97
2022-08-19T07:30:47.033Z,4.20
2022-08-19T07:33:38.497Z,4.22
2022-08-19T07:36:34.497Z,4.28
2022-08-19T07:39:36.352Z,4.28
2022-08-19T07:42:27.050Z,4.65
2022-08-19T07:45:18.578Z,4.38
2022-08-19T07:48:09.926Z,4.68
2022-08-19T07:51:05.932Z,4.30
2022-08-19T07:53:56.864Z,4.55
2022-08-19T07:56:49.098Z,4.32
2022-08-19T07:59:43.686Z,4.18
2022-08-19T08:02:33.839Z,4.45
2022-08-19T08:05:44.312Z,4.13
2022-08-19T08:08:54.086Z,4.20
2022-08-19T08:12:32.897Z,4.00
2022-08-19T08:15:25.058Z,4.25
2022-08-19T08:18:16.968Z,4.50
2022-08-19T08:21:08.012Z,4.35
2022-08-19T08:26:57.838Z,4.20
2022-08-19T08:29:51.982Z,4.10
2022-08-19T08:32:43.853Z,4.55
2022-08-19T08:35:38.085Z,4.72
2022-08-19T08:38:29.308Z,4.55
2022-08-19T08:41:43.713Z,4.22
2022-08-19T08:44:41.539Z,4.20
2022-08-19T08:47:42.028Z,4.43
2022-08-19T08:50:43.371Z,4.40
2022-08-19T08:53:38.786Z,4.72
2022-08-19T08:56:33.782Z,4.63
2022-08-19T08:59:35.526Z,4.68
2022-08-19T09:02:27.286Z,4.28
2022-08-19T09:05:18.540Z,4.72
2022-08-19T09:08:38.731Z,4.22
2022-08-19T09:11:42.730Z,4.72
2022-08-19T09:14:57.153Z,4.45
2022-08-19T09:20:42.596Z,3.90
2022-08-19T09:23:33.378Z,4.60
2022-08-19T09:26:47.622Z,4.15
2022-08-19T09:29:39.373Z,4.10
2022-08-19T09:32:32.529Z,4.35
2022-08-19T09:35:49.798Z,4.28
2022-08-19T09:38:45.287Z,4.10
2022-08-19T09:41:36.647Z,4.30
2022-08-19T09:44:28.812Z,4.13
2022-08-19T09:47:20.163Z,4.03
2022-08-19T09:50:16.617Z,4.75
2022-08-19T09:53:09.543Z,4.00
2022-08-19T09:55:59.718Z,4.20
2022-08-19T09:58:51.630Z,4.90
2022-08-19T10:01:43.254Z,4.32
2022-08-19T10:04:55.859Z,4.97
2022-08-19T10:07:46.618Z,4.85
2022-08-19T10:10:55.013Z,4.40
2022-08-19T10:13:48.358Z,4.63
2022-08-19T10:16:42.241Z,4.85
2022-08-19T10:19:38.014Z,4.90
2022-08-19T10:22:28.738Z,4.90
2022-08-19T10:25:18.769Z,4.93
2022-08-19T10:28:10.650Z,4.80
2022-08-19T10:31:00.990Z,5.10
2022-08-19T10:33:53.348Z,4.85
2022-08-19T10:36:56.424Z,4.88
2022-08-19T10:39:50.806Z,4.85
2022-08-19T10:42:41.169Z,4.70
2022-08-19T10:45:52.210Z,4.45
2022-08-19T10:48:44.850Z,4.50
2022-08-19T10:55:05.155Z,4.60
2022-08-19T10:58:02.966Z,4.88
2022-08-19T11:02:24.978Z,4.18
2022-08-19T11:04:45.388Z,4.32
2022-08-19T11:08:21.202Z,4.30
2022-08-19T11:11:49.320Z,4.05
2022-08-19T11:14:48.538Z,4.68
2022-08-19T11:17:46.304Z,4.57
2022-08-19T11:20:56.225Z,4.60
2022-08-19T11:24:00.309Z,4.78
2022-08-19T11:26:59.500Z,5.03
2022-08-19T11:29:50.938Z,4.80
2022-08-19T11:32:47.319Z,5.07
2022-08-19T11:35:49.329Z,4.78
2022-08-19T11:38:46.388Z,4.60
2022-08-19T11:41:41.186Z,4.55
2022-08-19T11:44:34.024Z,4.32
2022-08-19T11:47:27.693Z,4.50
2022-08-19T11:50:30.023Z,4.32
2022-08-19T11:53:24.740Z,4.70
2022-08-19T11:56:31.238Z,4.55
2022-08-19T11:59:27.224Z,4.75
2022-08-19T12:02:28.558Z,4.60
2022-08-19T12:06:02.673Z,4.45
2022-08-19T12:09:03.047Z,4.78
2022-08-19T12:11:54.790Z,4.32
2022-08-19T12:15:44.253Z,3.72
2022-08-19T12:18:48.358Z,4.50
2022-08-19T12:21:55.773Z,4.25
2022-08-19T12:24:54.645Z,4.20
2022-08-19T12:27:56.780Z,4.70
2022-08-19T12:31:09.056Z,4.90
2022-08-19T12:34:05.033Z,4.70
2022-08-19T12:36:55.688Z,4.60
2022-08-19T12:39:47.184Z,4.40
2022-08-19T12:42:39.907Z,4.32
2022-08-19T12:45:48.565Z,4.43
2022-08-19T12:48:43.837Z,4.55
2022-08-19T12:51:35.691Z,4.20
2022-08-19T12:54:26.648Z,4.13
2022-08-19T12:57:17.926Z,4.30
2022-08-19T13:00:20.175Z,4.47
2022-08-19T13:03:10.873Z,4.22
2022-08-19T13:06:12.071Z,4.22
2022-08-19T13:09:02.624Z,4.30
2022-08-19T13:11:51.955Z,4.20
2022-08-19T13:14:42.757Z,4.50
2022-08-19T13:17:32.768Z,4.78
2022-08-19T13:20:23.454Z,4.20
2022-08-19T13:23:13.320Z,4.57
2022-08-19T13:26:20.723Z,4.07
2022-08-19T13:29:43.800Z,4.10
2022-08-19T13:32:54.689Z,4.35
2022-08-19T13:35:59.548Z,4.10
2022-08-19T13:38:49.080Z,4.57
2022-08-19T13:41:39.395Z,4.43
2022-08-19T13:44:33.554Z,4.20
2022-08-19T13:47:25.788Z,3.65
2022-08-19T13:50:17.418Z,4.75
2022-08-19T13:53:07.076Z,4.60
2022-08-19T13:55:57.800Z,4.05
2022-08-19T13:58:48.528Z,3.92
2022-08-19T14:01:38.497Z,4.38
2022-08-19T14:04:28.029Z,4.15
2022-08-19T14:07:19.952Z,4.07
2022-08-19T14:10:11.992Z,4.20
2022-08-19T14:13:04.288Z,4.05
2022-08-19T14:15:55.074Z,3.95
2022-08-19T14:18:45.253Z,3.80
2022-08-19T14:21:41.467Z,3.90
2022-08-19T14:24:31.245Z,3.72
2022-08-19T14:27:20.635Z,3.78
2022-08-19T14:30:14.078Z,3.67
2022-08-19T14:33:04.916Z,3.95
2022-08-19T14:35:54.355Z,3.22
2022-08-19T14:38:50.813Z,3.75
2022-08-19T14:41:44.095Z,4.10
2022-08-19T14:44:33.908Z,3.97
2022-08-19T14:47:23.161Z,4.28
2022-08-19T14:50:18.208Z,4.35
2022-08-19T14:53:12.711Z,3.40
2022-08-19T14:56:03.437Z,3.67
2022-08-19T14:58:53.800Z,3.70
2022-08-19T15:01:43.182Z,3.72
2022-08-19T15:04:33.838Z,4.05
2022-08-19T15:07:23.388Z,3.60
2022-08-19T15:10:17.698Z,3.67
2022-08-19T15:13:07.934Z,4.10
2022-08-19T15:15:59.154Z,3.60
2022-08-19T15:18:51.820Z,3.72
2022-08-19T15:21:41.541Z,3.40
2022-08-19T15:24:31.029Z,3.92
2022-08-19T15:27:20.282Z,3.97
2022-08-19T15:30:11.632Z,3.58
2022-08-19T15:33:01.084Z,3.70
2022-08-19T15:35:52.644Z,3.67
2022-08-19T15:38:46.194Z,3.97
2022-08-19T15:41:37.126Z,3.50
2022-08-19T15:44:26.800Z,3.95
2022-08-19T15:47:16.476Z,3.72
2022-08-19T15:50:15.308Z,3.70
2022-08-19T15:53:10.837Z,3.78
2022-08-19T15:56:00.272Z,3.90
2022-08-19T15:59:07.663Z,3.75
2022-08-19T16:02:16.598Z,4.10
2022-08-19T16:05:27.702Z,3.70
2022-08-19T16:08:17.026Z,4.07
2022-08-19T16:11:06.420Z,3.85
2022-08-19T16:13:56.300Z,3.88
2022-08-19T16:19:39.149Z,3.25
2022-08-19T16:22:33.400Z,4.00
2022-08-19T16:25:24.745Z,3.80
2022-08-19T16:28:14.029Z,3.72
2022-08-19T16:31:03.539Z,3.63
2022-08-19T16:33:52.936Z,3.83
2022-08-19T16:36:44.602Z,3.67
2022-08-19T16:39:35.435Z,3.80
2022-08-19T16:42:25.669Z,3.70
2022-08-19T16:45:15.076Z,3.90
2022-08-19T16:48:04.852Z,3.45
2022-08-19T16:50:54.820Z,3.33
2022-08-19T16:53:46.203Z,3.50
2022-08-19T16:56:36.048Z,3.30
2022-08-19T16:59:26.533Z,3.30
2022-08-19T17:02:15.960Z,3.35
2022-08-19T17:05:05.640Z,3.60
2022-08-19T17:07:55.227Z,3.35
2022-08-19T17:11:16.455Z,3.30
2022-08-19T17:13:57.703Z,3.60
2022-08-19T17:16:47.168Z,3.65
2022-08-19T17:19:36.588Z,3.47
2022-08-19T17:22:26.192Z,3.28
2022-08-19T17:25:17.002Z,3.60
2022-08-19T17:28:16.192Z,3.80
2022-08-19T17:31:05.801Z,4.00
2022-08-19T17:33:59.861Z,3.30
2022-08-19T17:36:49.173Z,3.30
2022-08-19T17:39:40.062Z,3.40
2022-08-19T17:42:29.633Z,3.67
2022-08-19T17:45:19.064Z,3.60
2022-08-19T17:48:09.249Z,3.45
2022-08-19T17:50:58.960Z,3.75
2022-08-19T17:53:49.089Z,3.53
2022-08-19T17:56:39.122Z,3.50
2022-08-19T17:59:30.309Z,3.30
2022-08-19T18:02:22.067Z,3.50
2022-08-19T18:05:11.826Z,3.95
2022-08-19T18:08:02.984Z,3.55
2022-08-19T18:10:52.348Z,3.88
2022-08-19T18:13:41.644Z,3.40
2022-08-19T18:16:33.379Z,3.70
2022-08-19T18:19:23.864Z,3.60
2022-08-19T18:22:31.760Z,3.50
2022-08-19T18:25:25.548Z,3.92
2022-08-19T18:28:15.308Z,3.28
2022-08-19T18:31:05.657Z,3.30
2022-08-19T18:33:56.026Z,3.38
2022-08-19T18:37:00.492Z,3.53
2022-08-19T18:40:08.291Z,2.95
2022-08-19T18:43:23.948Z,3.13
2022-08-19T18:46:35.024Z,3.63
2022-08-19T18:49:30.191Z,3.75
2022-08-19T18:52:22.235Z,3.30
2022-08-19T18:55:13.143Z,3.38
2022-08-19T18:58:03.761Z,3.28
2022-08-19T19:00:57.165Z,3.55
2022-08-19T19:03:49.935Z,3.10
2022-08-19T19:06:42.341Z,3.20
2022-08-19T19:09:31.924Z,3.95
2022-08-19T19:12:21.594Z,3.75
2022-08-19T19:15:11.655Z,3.15
2022-08-19T19:18:01.202Z,3.72
2022-08-19T19:20:51.389Z,3.53
2022-08-19T19:23:42.241Z,3.75
2022-08-19T19:26:31.832Z,3.90
2022-08-19T19:29:21.997Z,3.65
2022-08-19T19:32:38.964Z,3.80
2022-08-19T19:35:30.992Z,3.78
2022-08-19T19:38:20.600Z,3.63
2022-08-19T19:41:09.902Z,3.50
2022-08-19T19:44:29.369Z,4.00
2022-08-19T19:47:11.553Z,3.95
2022-08-19T19:50:16.440Z,3.63
2022-08-19T19:53:07.300Z,3.72
2022-08-19T19:56:03.177Z,3.53
2022-08-19T19:58:54.400Z,3.67
2022-08-19T20:01:47.279Z,3.40
2022-08-19T20:04:38.369Z,3.38
2022-08-19T20:07:47.484Z,3.50
2022-08-19T20:10:37.040Z,3.90
2022-08-19T20:13:26.341Z,3.80
2022-08-19T20:16:15.973Z,3.20
2022-08-19T20:19:05.388Z,3.42
2022-08-19T20:21:56.801Z,3.50
2022-08-19T20:24:46.161Z,3.20
2022-08-19T20:27:39.839Z,3.63
2022-08-19T20:30:31.435Z,3.58
2022-08-19T20:33:25.595Z,3.55
2022-08-19T20:39:06.021Z,3.78
2022-08-19T20:41:57.311Z,3.63
2022-08-19T20:44:46.764Z,3.42
2022-08-19T20:47:37.254Z,3.78
2022-08-19T20:50:30.190Z,3.50
2022-08-19T20:53:21.724Z,3.70
2022-08-19T20:56:11.075Z,3.50
2022-08-19T20:59:05.473Z,3.15
2022-08-19T21:01:55.632Z,3.33
2022-08-19T21:04:45.110Z,3.45
2022-08-19T21:07:39.286Z,3.63
2022-08-19T21:10:29.001Z,4.10
2022-08-19T21:13:19.937Z,3.55
2022-08-19T21:16:09.880Z,3.70
2022-08-19T21:18:59.260Z,3.60
2022-08-19T21:21:48.685Z,3.55
2022-08-19T21:24:39.084Z,3.78
2022-08-19T21:27:28.609Z,3.47
2022-08-19T21:30:17.856Z,3.67
2022-08-19T21:33:08.056Z,3.42
2022-08-19T21:35:57.708Z,3.70
2022-08-19T21:38:46.940Z,3.50
2022-08-19T21:41:37.483Z,3.53
2022-08-19T21:44:30.432Z,3.63
2022-08-19T21:47:19.900Z,3.47
2022-08-19T21:50:10.348Z,4.07
2022-08-19T21:53:01.590Z,3.80
2022-08-19T21:55:53.787Z,3.65
2022-08-19T21:58:43.481Z,3.72
2022-08-19T22:01:32.761Z,4.10
2022-08-19T22:04:22.589Z,3.40
2022-08-19T22:07:15.208Z,3.65
2022-08-19T22:10:07.497Z,3.95
2022-08-19T22:12:57.500Z,3.45
2022-08-19T22:15:47.926Z,3.50
2022-08-19T22:18:37.520Z,4.15
2022-08-19T22:21:39.778Z,3.95
2022-08-19T22:24:29.897Z,3.58
2022-08-19T22:27:19.570Z,4.28
2022-08-19T22:30:12.584Z,3.90
2022-08-19T22:33:04.728Z,3.83
2022-08-19T22:38:44.015Z,4.40
2022-08-19T22:41:34.748Z,4.10
2022-08-19T22:44:24.136Z,3.85
2022-08-19T22:47:13.867Z,3.97
2022-08-19T22:50:03.522Z,3.83
2022-08-19T22:53:04.137Z,3.95
2022-08-19T22:55:54.035Z,3.75
2022-08-19T22:58:44.168Z,3.70
2022-08-19T23:01:33.603Z,3.72
2022-08-19T23:04:24.019Z,3.65
2022-08-19T23:07:13.404Z,3.95
2022-08-19T23:10:03.005Z,3.75
2022-08-19T23:12:53.553Z,3.72
2022-08-19T23:15:44.029Z,3.47
2022-08-19T23:18:34.758Z,3.80
2022-08-19T23:21:27.456Z,3.42
2022-08-19T23:24:19.549Z,3.90
2022-08-19T23:27:27.395Z,4.03
2022-08-19T23:30:30.571Z,3.70
2022-08-19T23:33:25.835Z,3.90
2022-08-19T23:36:35.467Z,3.80
2022-08-19T23:39:24.801Z,3.75
2022-08-19T23:42:14.984Z,3.58
2022-08-19T23:45:09.253Z,3.70
2022-08-19T23:47:58.870Z,3.60
2022-08-19T23:50:48.356Z,4.20
2022-08-19T23:53:40.427Z,3.60
2022-08-19T23:56:29.872Z,3.78
2022-08-19T23:59:20.580Z,3.83
